Time;durP1;ratioP1;P1;durP2;ratioP2;P2;SDS_P1;SDS_P2;PMS_P1;PMS_P2;Temp;Humidity;BMP_temperature;BMP_pressure;BME280_temperature;BME280_humidity;BME280_pressure;Samples;Min_cycle;Max_cycle;Signal;HPM_P1;HPM_P2
2023/03/06 00:02:03;;;;;;;10.60;7.85;;;4.80;99.90;;;;;;5033752;28;20047;-53
2023/03/06 00:04:30;;;;;;;11.35;9.00;;;4.80;99.90;;;;;;5034594;28;20041;-56
2023/03/06 00:06:57;;;;;;;10.00;8.00;;;4.80;99.90;;;;;;5034568;28;20100;-54
2023/03/06 00:09:23;;;;;;;11.82;8.07;;;4.80;99.90;;;;;;5034738;28;20041;-57
2023/03/06 00:11:50;;;;;;;11.85;8.32;;;4.70;99.90;;;;;;5034229;28;20053;-56
2023/03/06 00:14:17;;;;;;;9.88;8.20;;;4.70;99.90;;;;;;5033951;28;20060;-60
2023/03/06 00:16:44;;;;;;;12.77;8.65;;;4.70;99.90;;;;;;5034490;28;20045;-58
2023/03/06 00:19:10;;;;;;;10.93;7.90;;;4.60;99.90;;;;;;5033397;28;20045;-60
2023/03/06 00:21:37;;;;;;;12.43;8.07;;;4.60;99.90;;;;;;5034286;28;20045;-54
2023/03/06 00:24:04;;;;;;;13.82;8.40;;;4.50;99.90;;;;;;5033060;28;20057;-56
2023/03/06 00:26:32;;;;;;;11.43;8.88;;;4.50;99.90;;;;;;5032723;28;20041;-54
2023/03/06 00:28:59;;;;;;;12.48;8.80;;;4.50;99.90;;;;;;5033171;28;20076;-54
2023/03/06 00:31:26;;;;;;;12.00;8.48;;;4.50;99.90;;;;;;5034109;28;20472;-58
2023/03/06 00:33:52;;;;;;;11.88;8.73;;;4.40;99.90;;;;;;5033857;28;20105;-56
2023/03/06 00:36:19;;;;;;;11.88;8.88;;;4.40;99.90;;;;;;5032922;28;20392;-53
2023/03/06 00:38:46;;;;;;;11.70;8.95;;;4.40;99.90;;;;;;5033428;28;20033;-56
2023/03/06 00:41:13;;;;;;;12.05;8.45;;;4.40;99.90;;;;;;5032978;28;20128;-57
2023/03/06 00:43:40;;;;;;;12.45;8.98;;;4.40;99.90;;;;;;5033886;28;20053;-56
2023/03/06 00:46:06;;;;;;;11.15;8.63;;;4.40;99.90;;;;;;5032130;28;20378;-58
2023/03/06 00:48:33;;;;;;;11.73;9.20;;;4.40;99.90;;;;;;5032491;28;20046;-54
2023/03/06 00:51:00;;;;;;;10.63;8.82;;;4.50;99.90;;;;;;5034299;28;20046;-55
2023/03/06 00:53:27;;;;;;;12.52;9.38;;;4.50;99.90;;;;;;5033844;28;20500;-57
2023/03/06 00:55:53;;;;;;;15.27;9.25;;;4.50;99.90;;;;;;5032589;28;20042;-57
2023/03/06 00:58:21;;;;;;;14.68;9.57;;;4.50;99.90;;;;;;5033643;28;20500;-58
2023/03/06 01:00:47;;;;;;;11.68;8.95;;;4.50;99.90;;;;;;5032269;28;20091;-55
2023/03/06 01:03:14;;;;;;;14.90;9.10;;;4.50;99.90;;;;;;5028894;28;20100;-58
2023/03/06 01:05:41;;;;;;;12.52;9.18;;;4.50;99.90;;;;;;5027298;28;20100;-59
2023/03/06 01:08:08;;;;;;;13.88;9.48;;;4.50;99.90;;;;;;5031773;28;20065;-57
2023/03/06 01:10:34;;;;;;;12.57;9.55;;;4.50;99.90;;;;;;5032079;28;20381;-57
2023/03/06 01:13:01;;;;;;;11.82;8.95;;;4.50;99.90;;;;;;5032204;28;20041;-56
2023/03/06 01:15:28;;;;;;;12.73;9.20;;;4.50;99.90;;;;;;5031843;28;20448;-56
2023/03/06 01:17:56;;;;;;;13.75;9.27;;;4.50;99.90;;;;;;5032284;28;20584;-54
2023/03/06 01:20:23;;;;;;;14.93;10.02;;;4.50;99.90;;;;;;5033479;28;20048;-55
2023/03/06 01:22:49;;;;;;;21.50;10.65;;;4.50;99.90;;;;;;5030754;28;20105;-53
2023/03/06 01:25:16;;;;;;;15.65;10.43;;;4.40;99.90;;;;;;5032967;28;20447;-56
2023/03/06 01:27:43;;;;;;;13.38;9.95;;;4.40;99.90;;;;;;5033199;28;20033;-53
2023/03/06 01:30:10;;;;;;;12.48;10.30;;;4.40;99.90;;;;;;5033146;28;20041;-56
2023/03/06 01:32:37;;;;;;;12.85;9.88;;;4.40;99.90;;;;;;5032951;28;20099;-55
2023/03/06 01:35:04;;;;;;;14.00;9.18;;;4.40;99.90;;;;;;5033011;28;20042;-55
2023/03/06 01:37:31;;;;;;;11.95;9.60;;;4.40;99.90;;;;;;5031596;28;20049;-56
2023/03/06 01:39:58;;;;;;;14.93;9.80;;;4.40;99.90;;;;;;5031569;28;20052;-57
2023/03/06 01:42:24;;;;;;;12.65;9.32;;;4.40;99.90;;;;;;5031634;28;20103;-55
2023/03/06 01:44:51;;;;;;;11.50;9.65;;;4.30;99.90;;;;;;5030880;28;20042;-55
2023/03/06 01:47:18;;;;;;;15.13;9.40;;;4.30;99.90;;;;;;5032962;28;20095;-56
2023/03/06 01:49:45;;;;;;;11.13;9.95;;;4.30;99.90;;;;;;5031730;28;20489;-59
2023/03/06 01:52:11;;;;;;;14.15;9.60;;;4.40;99.90;;;;;;5032911;28;20128;-55
2023/03/06 01:54:38;;;;;;;12.77;9.50;;;4.30;99.90;;;;;;5031652;28;20046;-52
2023/03/06 01:57:05;;;;;;;11.00;9.32;;;4.40;99.90;;;;;;5032791;28;20116;-55
2023/03/06 01:59:33;;;;;;;15.27;9.63;;;4.40;99.90;;;;;;5031634;28;20048;-58
2023/03/06 02:02:00;;;;;;;12.70;9.15;;;4.40;99.90;;;;;;5032348;28;20041;-59
2023/03/06 02:04:27;;;;;;;16.10;9.82;;;4.30;99.90;;;;;;5031487;28;20084;-55
2023/03/06 02:06:55;;;;;;;13.23;10.25;;;4.30;99.90;;;;;;5031225;28;20050;-52
2023/03/06 02:09:22;;;;;;;13.48;10.30;;;4.20;99.90;;;;;;5032806;28;20038;-57
2023/03/06 02:11:52;;;;;;;12.65;10.18;;;4.10;99.90;;;;;;5033016;28;20508;-58
2023/03/06 02:14:19;;;;;;;12.88;10.73;;;4.00;99.90;;;;;;5031414;28;20045;-56
2023/03/06 02:16:46;;;;;;;16.30;10.55;;;4.00;99.90;;;;;;5031582;28;20069;-58
2023/03/06 02:19:12;;;;;;;14.88;10.02;;;3.90;99.90;;;;;;5031777;28;20061;-57
2023/03/06 02:21:39;;;;;;;14.23;10.57;;;3.90;99.90;;;;;;5032779;28;20447;-57
2023/03/06 02:24:06;;;;;;;12.98;10.07;;;3.90;99.90;;;;;;5032179;28;20480;-56
2023/03/06 02:26:33;;;;;;;17.50;11.05;;;3.90;99.90;;;;;;5032473;28;20038;-56
2023/03/06 02:29:00;;;;;;;15.15;11.02;;;3.80;99.90;;;;;;5032888;28;20057;-54
2023/03/06 02:31:26;;;;;;;14.40;10.55;;;3.80;99.90;;;;;;5032061;28;20104;-56
2023/03/06 02:33:54;;;;;;;16.17;11.30;;;3.70;99.90;;;;;;5031952;28;20061;-57
2023/03/06 02:36:20;;;;;;;14.77;10.75;;;3.70;99.90;;;;;;5036499;28;20107;-53
2023/03/06 02:38:47;;;;;;;13.50;11.02;;;3.60;99.90;;;;;;5034926;28;20127;-52
2023/03/06 02:41:16;;;;;;;15.98;12.00;;;3.50;99.90;;;;;;5035161;28;20484;-59
2023/03/06 02:43:46;;;;;;;16.30;11.90;;;3.50;99.90;;;;;;5034689;28;20057;-59
2023/03/06 02:46:12;;;;;;;15.38;11.93;;;3.40;99.90;;;;;;5034398;28;20854;-57
2023/03/06 02:48:39;;;;;;;16.23;12.00;;;3.30;99.90;;;;;;5027279;28;21497;-59
2023/03/06 02:51:06;;;;;;;14.48;11.43;;;3.30;99.90;;;;;;5029240;28;20091;-57
2023/03/06 02:53:33;;;;;;;16.98;12.23;;;3.20;99.90;;;;;;5031742;28;20041;-55
2023/03/06 02:55:59;;;;;;;17.35;12.73;;;3.10;99.90;;;;;;5034184;28;20570;-57
2023/03/06 02:58:26;;;;;;;16.23;12.32;;;3.10;99.90;;;;;;5035844;28;20041;-56
2023/03/06 03:00:53;;;;;;;15.85;13.05;;;3.00;99.90;;;;;;5034565;28;20519;-57
2023/03/06 03:03:20;;;;;;;15.98;12.07;;;3.00;99.90;;;;;;5035766;28;20042;-56
2023/03/06 03:05:47;;;;;;;19.30;12.77;;;3.00;99.90;;;;;;5034338;28;20374;-52
2023/03/06 03:08:21;;;;;;;16.83;12.73;;;2.90;99.90;;;;;;5034017;28;20067;-59
2023/03/06 03:10:51;;;;;;;18.63;12.65;;;2.90;99.90;;;;;;5035805;28;20073;-58
2023/03/06 03:13:18;;;;;;;20.92;13.57;;;2.90;99.90;;;;;;5034398;28;20052;-60
2023/03/06 03:15:46;;;;;;;18.65;13.13;;;2.90;99.90;;;;;;5034178;28;20091;-54
2023/03/06 03:18:13;;;;;;;18.08;13.07;;;2.80;99.90;;;;;;5035672;28;20112;-56
2023/03/06 03:20:40;;;;;;;18.02;13.07;;;2.80;99.90;;;;;;5034171;28;20053;-56
2023/03/06 03:23:06;;;;;;;16.88;12.80;;;2.80;99.90;;;;;;5034856;28;20045;-55
2023/03/06 03:25:33;;;;;;;18.63;13.10;;;2.70;99.90;;;;;;5035898;28;20103;-58
2023/03/06 03:28:00;;;;;;;17.73;13.63;;;2.70;99.90;;;;;;5034781;28;20046;-57
2023/03/06 03:30:29;;;;;;;17.17;13.32;;;2.70;99.90;;;;;;5034421;28;20044;-56
2023/03/06 03:32:55;;;;;;;16.95;12.95;;;2.60;99.90;;;;;;5034724;28;20050;-57
2023/03/06 03:35:23;;;;;;;17.20;12.85;;;2.60;99.90;;;;;;5017343;28;20478;-57
2023/03/06 03:37:51;;;;;;;20.83;13.27;;;2.60;99.90;;;;;;5034415;28;20099;-56
2023/03/06 03:40:18;;;;;;;18.77;13.85;;;2.60;99.90;;;;;;5034479;28;20080;-53
2023/03/06 03:42:48;;;;;;;16.80;13.80;;;2.50;99.90;;;;;;5033834;28;20099;-59
2023/03/06 03:45:15;;;;;;;17.25;12.98;;;2.50;99.90;;;;;;5034733;28;20346;-54
2023/03/06 03:47:41;;;;;;;19.50;14.05;;;2.50;99.90;;;;;;5033759;28;20493;-54
2023/03/06 03:50:10;;;;;;;19.50;14.68;;;2.40;99.90;;;;;;5033986;28;20053;-56
2023/03/06 03:52:37;;;;;;;19.90;14.43;;;2.40;99.90;;;;;;5034256;28;20049;-55
2023/03/06 03:55:04;;;;;;;19.30;14.13;;;2.40;99.90;;;;;;5033826;28;20045;-59
2023/03/06 03:57:31;;;;;;;18.88;14.63;;;2.40;99.90;;;;;;5034387;28;20049;-56
2023/03/06 03:59:59;;;;;;;20.33;14.65;;;2.40;99.90;;;;;;5034292;28;20142;-54
2023/03/06 04:02:39;;;;;;;19.35;13.90;;;2.40;99.90;;;;;;5035172;28;20071;-55
2023/03/06 04:05:19;;;;;;;20.58;14.23;;;2.40;99.90;;;;;;5033812;28;20136;-57
2023/03/06 04:07:47;;;;;;;18.95;14.05;;;2.30;99.90;;;;;;5033964;28;20041;-56
2023/03/06 04:10:14;;;;;;;18.80;15.05;;;2.30;99.90;;;;;;5033682;28;20045;-55
2023/03/06 04:12:42;;;;;;;21.05;14.93;;;2.30;99.90;;;;;;5033615;28;20079;-53
2023/03/06 04:15:10;;;;;;;19.27;14.40;;;2.30;99.90;;;;;;5033195;28;20651;-57
2023/03/06 04:17:38;;;;;;;17.17;13.85;;;2.20;99.90;;;;;;5033766;28;20072;-56
2023/03/06 04:20:08;;;;;;;20.75;15.10;;;2.20;99.90;;;;;;5033882;28;20045;-56
2023/03/06 04:22:35;;;;;;;18.83;14.32;;;2.20;99.90;;;;;;5033305;28;20500;-54
2023/03/06 04:25:02;;;;;;;18.75;14.63;;;2.20;99.90;;;;;;5034944;28;20387;-57
2023/03/06 04:27:29;;;;;;;22.05;14.70;;;2.20;99.90;;;;;;5033494;28;20042;-56
2023/03/06 04:29:56;;;;;;;22.55;14.30;;;2.10;99.90;;;;;;5034617;28;20111;-56
2023/03/06 04:32:23;;;;;;;18.35;14.60;;;2.10;99.90;;;;;;5033077;28;20053;-56
2023/03/06 04:34:50;;;;;;;17.17;14.40;;;2.10;99.90;;;;;;5033528;28;20038;-58
2023/03/06 04:37:17;;;;;;;17.13;14.27;;;2.10;99.90;;;;;;5034499;28;20045;-53
2023/03/06 04:39:44;;;;;;;24.73;14.77;;;2.00;99.90;;;;;;5032946;28;20136;-60
2023/03/06 04:42:11;;;;;;;18.48;13.35;;;2.00;99.90;;;;;;5034362;28;20045;-59
2023/03/06 04:44:38;;;;;;;23.65;14.00;;;1.90;99.90;;;;;;5033877;28;20049;-60
2023/03/06 04:47:04;;;;;;;19.10;14.43;;;1.90;99.90;;;;;;5033045;28;20045;-60
2023/03/06 04:49:31;;;;;;;18.17;14.30;;;1.90;99.90;;;;;;5032746;28;20076;-58
2023/03/06 04:51:58;;;;;;;18.98;14.07;;;1.80;99.90;;;;;;5034082;28;20038;-56
2023/03/06 04:54:25;;;;;;;21.42;14.75;;;1.80;99.90;;;;;;5034356;28;20037;-61
2023/03/06 04:56:52;;;;;;;18.60;15.45;;;1.80;99.90;;;;;;5034020;28;20077;-55
2023/03/06 04:59:19;;;;;;;21.63;14.90;;;1.80;99.90;;;;;;5033312;28;20052;-56
2023/03/06 05:01:45;;;;;;;21.27;15.20;;;1.70;99.90;;;;;;5034331;28;20053;-56
2023/03/06 05:04:12;;;;;;;19.05;14.43;;;1.70;99.90;;;;;;5033613;28;20127;-57
2023/03/06 05:06:39;;;;;;;20.60;15.30;;;1.60;99.90;;;;;;5033674;28;20042;-53
2023/03/06 05:09:06;;;;;;;20.20;14.65;;;1.60;99.90;;;;;;5033643;28;20431;-52
2023/03/06 05:11:32;;;;;;;18.40;14.82;;;1.60;99.90;;;;;;5033871;28;20464;-57
2023/03/06 05:13:59;;;;;;;21.02;14.73;;;1.60;99.90;;;;;;5034204;28;20111;-52
2023/03/06 05:16:26;;;;;;;18.48;13.95;;;1.60;99.90;;;;;;5033511;28;20053;-56
2023/03/06 05:18:53;;;;;;;19.58;13.52;;;1.60;99.90;;;;;;5033464;28;20381;-58
2023/03/06 05:21:19;;;;;;;21.20;15.18;;;1.60;99.90;;;;;;5033649;28;20461;-52
2023/03/06 05:23:46;;;;;;;22.48;15.00;;;1.60;99.90;;;;;;5033442;28;20049;-58
2023/03/06 05:26:13;;;;;;;22.58;15.30;;;1.60;99.90;;;;;;5033393;28;20057;-54
2023/03/06 05:28:40;;;;;;;18.80;14.63;;;1.60;99.90;;;;;;5033031;28;20045;-55
2023/03/06 05:31:06;;;;;;;18.13;14.15;;;1.60;99.90;;;;;;5033532;28;20042;-56
2023/03/06 05:33:33;;;;;;;18.88;15.00;;;1.60;99.90;;;;;;5033313;28;20064;-55
2023/03/06 05:36:00;;;;;;;17.55;13.63;;;1.50;99.90;;;;;;5033829;28;20047;-54
2023/03/06 05:38:27;;;;;;;18.83;13.82;;;1.50;99.90;;;;;;5032650;28;20041;-59
2023/03/06 05:40:53;;;;;;;19.13;15.32;;;1.50;99.90;;;;;;5033607;28;20052;-55
2023/03/06 05:43:20;;;;;;;19.58;15.63;;;1.50;99.90;;;;;;5033720;28;20516;-56
2023/03/06 05:45:49;;;;;;;22.45;14.93;;;1.50;99.90;;;;;;5033127;28;20091;-56
2023/03/06 05:48:16;;;;;;;20.50;15.48;;;1.40;99.90;;;;;;5033364;28;20033;-57
2023/03/06 05:50:42;;;;;;;21.08;14.57;;;1.50;99.90;;;;;;5032249;28;20469;-57
2023/03/06 05:53:09;;;;;;;20.08;15.57;;;1.50;99.90;;;;;;5033481;28;20061;-54
2023/03/06 05:55:36;;;;;;;16.63;13.82;;;1.50;99.90;;;;;;5033668;28;20041;-58
2023/03/06 05:58:03;;;;;;;19.65;14.40;;;1.50;99.90;;;;;;5031822;28;20551;-61
2023/03/06 06:00:29;;;;;;;19.52;14.38;;;1.60;99.90;;;;;;5033308;28;20099;-58
2023/03/06 06:02:56;;;;;;;21.20;14.82;;;1.60;99.90;;;;;;5033454;28;20057;-56
2023/03/06 06:05:23;;;;;;;21.25;14.27;;;1.60;99.90;;;;;;5033183;28;20478;-56
2023/03/06 06:07:49;;;;;;;17.55;13.93;;;1.60;99.90;;;;;;5033358;28;20041;-54
2023/03/06 06:10:16;;;;;;;20.08;14.18;;;1.60;99.90;;;;;;5036181;28;20404;-53
2023/03/06 06:12:43;;;;;;;17.98;14.82;;;1.60;99.90;;;;;;5036824;28;20045;-55
2023/03/06 06:15:10;;;;;;;22.17;15.85;;;1.50;99.90;;;;;;5036755;28;20056;-58
2023/03/06 06:17:36;;;;;;;18.48;14.40;;;1.60;99.90;;;;;;5037001;28;20048;-55
2023/03/06 06:20:03;;;;;;;17.75;14.38;;;1.50;99.90;;;;;;5037213;28;20076;-60
2023/03/06 06:22:30;;;;;;;18.77;14.23;;;1.50;99.90;;;;;;5037068;28;20078;-57
2023/03/06 06:24:57;;;;;;;21.33;14.98;;;1.60;99.90;;;;;;5037188;28;20052;-54
2023/03/06 06:27:23;;;;;;;17.80;13.55;;;1.60;99.90;;;;;;5036915;28;20034;-56
2023/03/06 06:29:51;;;;;;;20.83;14.80;;;1.60;99.90;;;;;;5037191;28;20045;-57
2023/03/06 06:32:18;;;;;;;16.20;13.82;;;1.60;99.90;;;;;;5037039;28;20068;-52
2023/03/06 06:34:44;;;;;;;18.80;14.68;;;1.60;99.90;;;;;;5036725;28;20061;-55
2023/03/06 06:37:11;;;;;;;19.05;13.55;;;1.70;99.90;;;;;;5036563;28;20046;-55
2023/03/06 06:39:38;;;;;;;16.67;13.88;;;1.70;99.90;;;;;;5036873;28;20045;-55
2023/03/06 06:42:05;;;;;;;16.88;13.38;;;1.80;99.90;;;;;;5036948;28;20041;-58
2023/03/06 06:44:52;;;;;;;14.77;12.15;;;1.90;99.90;;;;;;5036748;28;20052;-59
2023/03/06 06:47:18;;;;;;;15.23;11.80;;;2.00;99.90;;;;;;5036630;28;20042;-57
2023/03/06 06:49:50;;;;;;;17.40;11.65;;;2.10;99.90;;;;;;5036713;28;20052;-58
2023/03/06 06:52:17;;;;;;;14.57;11.63;;;2.20;99.90;;;;;;5037037;28;20042;-57
2023/03/06 06:54:44;;;;;;;15.63;11.63;;;2.30;99.90;;;;;;5036626;28;20046;-53
2023/03/06 06:57:11;;;;;;;16.30;10.95;;;2.40;99.90;;;;;;5036775;28;20107;-60
2023/03/06 06:59:37;;;;;;;13.05;10.48;;;2.40;99.90;;;;;;5036368;28;20045;-54
2023/03/06 07:02:04;;;;;;;12.98;10.20;;;2.50;99.90;;;;;;5035021;28;20099;-56
2023/03/06 07:04:31;;;;;;;14.55;10.77;;;2.50;99.90;;;;;;5036532;28;20069;-59
2023/03/06 07:06:58;;;;;;;13.25;9.93;;;2.60;99.90;;;;;;5036188;28;20473;-55
2023/03/06 07:09:25;;;;;;;13.27;10.32;;;2.60;99.90;;;;;;5035669;28;20065;-59
2023/03/06 07:11:52;;;;;;;14.35;10.95;;;2.70;99.90;;;;;;5035979;28;20041;-59
2023/03/06 07:14:18;;;;;;;12.90;10.43;;;2.80;99.90;;;;;;5036215;28;20040;-56
2023/03/06 07:16:45;;;;;;;13.52;9.50;;;2.80;99.90;;;;;;5036167;28;20061;-59
2023/03/06 07:19:12;;;;;;;11.10;9.38;;;2.90;99.90;;;;;;5036528;28;20041;-59
2023/03/06 07:21:39;;;;;;;12.85;9.48;;;2.90;99.90;;;;;;5034786;28;20095;-55
2023/03/06 07:24:05;;;;;;;11.32;9.60;;;3.00;99.90;;;;;;5035927;28;20042;-60
2023/03/06 07:26:32;;;;;;;12.57;9.38;;;3.10;99.90;;;;;;5035876;28;20473;-54
2023/03/06 07:29:00;;;;;;;16.27;9.93;;;3.10;99.90;;;;;;5035554;28;20049;-56
2023/03/06 07:31:27;;;;;;;12.32;9.35;;;3.10;99.90;;;;;;5036175;28;20045;-58
2023/03/06 07:33:54;;;;;;;12.25;9.00;;;3.20;99.90;;;;;;5035432;28;20037;-56
2023/03/06 07:36:21;;;;;;;11.60;9.27;;;3.30;99.90;;;;;;5036100;28;20048;-57
2023/03/06 07:38:47;;;;;;;10.07;8.90;;;3.30;99.90;;;;;;5034897;28;20046;-55
2023/03/06 07:41:15;;;;;;;10.75;8.40;;;3.40;99.90;;;;;;5035636;28;20045;-59
2023/03/06 07:43:42;;;;;;;10.63;8.45;;;3.50;99.90;;;;;;5035160;28;20477;-55
2023/03/06 07:46:09;;;;;;;10.25;8.30;;;3.50;99.90;;;;;;5035733;28;20108;-53
2023/03/06 07:48:35;;;;;;;11.30;8.65;;;3.60;99.90;;;;;;5034345;28;20469;-56
2023/03/06 07:51:03;;;;;;;10.18;8.85;;;3.70;99.90;;;;;;5035601;28;20521;-54
2023/03/06 07:53:29;;;;;;;9.73;7.85;;;3.70;99.90;;;;;;5035139;28;20132;-56
2023/03/06 07:55:56;;;;;;;10.02;7.68;;;3.70;99.90;;;;;;5035228;28;20048;-58
2023/03/06 07:58:23;;;;;;;9.98;7.93;;;3.70;99.90;;;;;;5035401;28;20531;-58
2023/03/06 08:00:50;;;;;;;10.05;7.32;;;3.80;99.90;;;;;;5034896;28;20545;-59
2023/03/06 08:03:16;;;;;;;10.40;8.10;;;3.80;99.90;;;;;;5034155;28;20045;-55
2023/03/06 08:05:43;;;;;;;8.90;7.30;;;3.90;99.90;;;;;;5034724;28;20443;-55
2023/03/06 08:08:10;;;;;;;12.90;8.20;;;3.90;99.90;;;;;;5034930;28;20170;-59
2023/03/06 08:10:37;;;;;;;10.65;8.02;;;3.90;99.90;;;;;;5034958;28;20512;-59
2023/03/06 08:13:03;;;;;;;11.63;9.63;;;4.00;99.90;;;;;;5034818;28;20046;-56
2023/03/06 08:15:30;;;;;;;9.65;7.88;;;4.00;99.90;;;;;;5034818;28;20064;-57
2023/03/06 08:17:57;;;;;;;9.30;7.85;;;4.00;99.90;;;;;;5034782;28;20443;-60
2023/03/06 08:20:24;;;;;;;12.07;8.50;;;4.10;99.90;;;;;;5034907;28;20041;-59
2023/03/06 08:22:51;;;;;;;11.80;10.32;;;4.10;99.90;;;;;;5034765;28;20042;-58
2023/03/06 08:25:18;;;;;;;13.85;10.73;;;4.10;99.90;;;;;;5034182;28;20041;-59
2023/03/06 08:27:46;;;;;;;10.65;8.10;;;4.20;99.90;;;;;;5034887;28;20086;-57
2023/03/06 08:30:13;;;;;;;13.25;8.18;;;4.20;99.90;;;;;;5035099;28;20128;-60
2023/03/06 08:32:39;;;;;;;12.98;8.32;;;4.30;99.90;;;;;;5034310;28;20408;-59
2023/03/06 08:35:06;;;;;;;13.55;8.45;;;4.30;99.90;;;;;;5034384;28;20095;-58
2023/03/06 08:37:33;;;;;;;12.13;8.20;;;4.40;99.90;;;;;;5034319;28;20049;-59
2023/03/06 08:40:03;;;;;;;16.00;8.13;;;4.40;99.90;;;;;;5034350;28;20041;-55
2023/03/06 08:42:30;;;;;;;10.45;8.00;;;4.60;99.90;;;;;;5034586;28;20045;-57
2023/03/06 08:44:57;;;;;;;9.90;7.18;;;4.60;99.90;;;;;;5034344;28;20045;-55
2023/03/06 08:47:23;;;;;;;12.65;7.18;;;4.70;99.90;;;;;;5034121;28;20543;-58
2023/03/06 08:49:50;;;;;;;8.93;7.13;;;4.70;99.90;;;;;;5034121;28;20104;-58
2023/03/06 08:52:18;;;;;;;9.27;6.93;;;4.80;99.90;;;;;;5032871;28;20091;-58
2023/03/06 08:54:45;;;;;;;7.05;6.10;;;4.80;99.90;;;;;;5034177;28;20491;-55
2023/03/06 08:57:12;;;;;;;18.80;7.32;;;4.80;99.90;;;;;;5033888;28;20041;-59
2023/03/06 08:59:40;;;;;;;9.63;6.65;;;4.90;99.90;;;;;;5032639;28;20435;-60
2023/03/06 09:02:10;;;;;;;12.25;7.03;;;5.00;99.90;;;;;;5033888;28;20045;-57
2023/03/06 09:04:37;;;;;;;9.90;6.97;;;5.00;99.90;;;;;;5032301;28;20099;-57
2023/03/06 09:07:04;;;;;;;17.35;7.82;;;5.10;99.90;;;;;;5031836;28;20099;-59
2023/03/06 09:09:31;;;;;;;10.45;7.18;;;5.10;99.90;;;;;;5032425;28;20044;-57
2023/03/06 09:11:57;;;;;;;7.18;6.43;;;5.20;99.90;;;;;;5032255;28;20049;-55
2023/03/06 09:14:24;;;;;;;7.90;6.65;;;5.20;99.90;;;;;;5032180;28;20048;-58
2023/03/06 09:16:51;;;;;;;9.60;7.13;;;5.20;99.90;;;;;;5031389;28;20091;-56
2023/03/06 09:19:18;;;;;;;10.50;7.72;;;5.30;99.90;;;;;;5032069;28;20452;-52
2023/03/06 09:21:44;;;;;;;8.73;7.53;;;5.30;99.90;;;;;;5032724;28;20033;-52
2023/03/06 09:24:11;;;;;;;8.45;7.30;;;5.40;99.90;;;;;;5033119;28;20041;-55
2023/03/06 09:26:38;;;;;;;12.15;7.43;;;5.40;99.90;;;;;;5027208;28;20041;-55
2023/03/06 09:29:14;;;;;;;11.98;9.02;;;5.40;99.90;;;;;;5029544;28;20104;-58
2023/03/06 09:31:41;;;;;;;8.60;7.57;;;5.50;99.90;;;;;;5032719;28;20547;-55
2023/03/06 09:34:08;;;;;;;9.57;7.10;;;5.50;99.90;;;;;;5031218;28;20048;-56
2023/03/06 09:36:35;;;;;;;17.20;7.72;;;5.60;99.90;;;;;;5032732;28;20112;-59
2023/03/06 09:39:20;;;;;;;13.23;7.50;;;5.60;99.90;;;;;;5032177;28;20075;-55
2023/03/06 09:41:48;;;;;;;8.98;7.32;;;5.70;99.90;;;;;;5032861;28;20294;-55
2023/03/06 09:44:15;;;;;;;9.52;7.28;;;5.90;99.90;;;;;;5032229;28;20084;-60
2023/03/06 09:46:41;;;;;;;11.63;7.72;;;6.00;99.90;;;;;;5032502;28;20041;-60
2023/03/06 09:49:09;;;;;;;8.60;6.45;;;6.10;99.90;;;;;;5032728;28;20034;-60
2023/03/06 09:51:36;;;;;;;12.75;7.63;;;6.20;99.90;;;;;;5032759;28;20458;-59
2023/03/06 09:54:02;;;;;;;19.20;7.80;;;6.30;99.90;;;;;;5033007;28;20064;-61
2023/03/06 09:56:30;;;;;;;9.23;6.70;;;6.40;99.90;;;;;;5032544;28;20038;-56
2023/03/06 09:58:57;;;;;;;10.60;7.68;;;6.40;99.90;;;;;;5032444;28;20053;-59
2023/03/06 10:01:24;;;;;;;8.48;6.57;;;6.50;99.90;;;;;;5032721;28;20057;-55
2023/03/06 10:03:51;;;;;;;11.93;7.07;;;6.50;99.90;;;;;;5032624;28;20037;-59
2023/03/06 10:06:18;;;;;;;11.82;6.47;;;6.60;99.90;;;;;;5032224;28;20428;-55
2023/03/06 10:08:44;;;;;;;9.82;7.07;;;6.70;99.90;;;;;;5031942;28;20040;-56
2023/03/06 10:11:11;;;;;;;6.80;6.10;;;6.70;99.90;;;;;;5031127;28;20044;-58
2023/03/06 10:13:38;;;;;;;13.65;6.70;;;6.80;99.90;;;;;;5031048;28;20045;-58
2023/03/06 10:16:04;;;;;;;8.75;6.57;;;6.90;99.90;;;;;;5032072;28;20042;-56
2023/03/06 10:18:31;;;;;;;11.60;6.47;;;7.00;99.90;;;;;;5032801;28;20121;-55
2023/03/06 10:20:58;;;;;;;7.38;6.40;;;7.10;99.90;;;;;;5032724;28;20120;-58
2023/03/06 10:23:44;;;;;;;17.02;6.97;;;7.20;99.90;;;;;;5032617;28;20049;-59
2023/03/06 10:26:10;;;;;;;11.10;7.00;;;7.30;99.90;;;;;;5031552;28;20045;-59
2023/03/06 10:28:37;;;;;;;9.73;6.25;;;7.30;99.90;;;;;;5032433;28;20040;-58
2023/03/06 10:31:04;;;;;;;8.70;6.70;;;7.30;99.90;;;;;;5032621;28;20045;-57
2023/03/06 10:33:31;;;;;;;7.65;6.18;;;7.40;99.90;;;;;;5030724;28;20041;-57
2023/03/06 10:35:57;;;;;;;11.27;6.50;;;7.40;99.90;;;;;;5032100;28;20045;-58
2023/03/06 10:38:24;;;;;;;8.73;6.45;;;7.50;99.90;;;;;;5032436;28;20116;-57
2023/03/06 10:40:51;;;;;;;7.40;6.35;;;7.60;99.90;;;;;;5032192;28;20463;-54
2023/03/06 10:43:18;;;;;;;8.40;6.43;;;7.70;99.90;;;;;;5032316;28;20045;-56
2023/03/06 10:45:45;;;;;;;10.90;6.88;;;7.70;99.90;;;;;;5031848;28;20041;-58
2023/03/06 10:48:15;;;;;;;8.88;6.90;;;7.80;99.90;;;;;;5031124;28;20041;-53
2023/03/06 10:50:41;;;;;;;8.80;7.20;;;7.80;99.90;;;;;;5031696;28;20038;-57
2023/03/06 10:53:08;;;;;;;7.57;6.50;;;7.90;99.90;;;;;;5032170;28;20046;-55
2023/03/06 10:55:35;;;;;;;9.00;7.43;;;7.90;99.90;;;;;;5032721;28;20209;-60
2023/03/06 10:58:02;;;;;;;9.27;7.10;;;7.90;99.90;;;;;;5035805;28;20115;-58
2023/03/06 11:00:28;;;;;;;9.75;7.28;;;8.00;99.90;;;;;;5035772;28;20041;-58
2023/03/06 11:02:55;;;;;;;8.35;6.82;;;8.10;99.90;;;;;;5034373;28;20068;-58
2023/03/06 11:05:22;;;;;;;9.52;6.82;;;8.20;99.90;;;;;;5034489;28;20053;-58
2023/03/06 11:07:49;;;;;;;13.40;7.20;;;8.30;99.90;;;;;;5034517;28;20477;-59
2023/03/06 11:10:16;;;;;;;10.75;6.70;;;8.40;99.90;;;;;;5034505;28;20132;-53
2023/03/06 11:12:43;;;;;;;8.68;7.15;;;8.40;99.90;;;;;;5033093;28;20034;-59
2023/03/06 11:15:11;;;;;;;9.07;6.78;;;8.50;99.90;;;;;;5031900;28;20041;-55
2023/03/06 11:17:38;;;;;;;12.65;7.28;;;8.60;99.90;;;;;;5034977;28;20525;-55
2023/03/06 11:20:04;;;;;;;9.38;7.05;;;8.60;99.90;;;;;;5034909;28;20041;-55
2023/03/06 11:22:31;;;;;;;9.18;7.28;;;8.60;99.90;;;;;;5035888;28;20099;-56
2023/03/06 11:24:58;;;;;;;15.93;6.85;;;8.60;99.90;;;;;;5036178;28;20073;-56
2023/03/06 11:27:24;;;;;;;7.55;6.40;;;8.60;99.90;;;;;;5035481;28;20048;-58
2023/03/06 11:29:51;;;;;;;9.52;6.03;;;8.60;99.90;;;;;;5035921;28;20043;-59
2023/03/06 11:32:18;;;;;;;18.48;6.13;;;8.60;99.90;;;;;;5035516;28;20045;-56
2023/03/06 11:34:44;;;;;;;8.77;5.82;;;8.60;99.90;;;;;;5035758;28;20121;-56
2023/03/06 11:37:13;;;;;;;6.78;5.32;;;8.60;99.90;;;;;;5035263;28;20044;-57
2023/03/06 11:39:40;;;;;;;5.60;4.70;;;8.60;99.90;;;;;;5035880;28;20072;-55
2023/03/06 11:42:07;;;;;;;7.25;5.05;;;8.60;99.90;;;;;;5035384;28;20038;-56
2023/03/06 11:44:34;;;;;;;5.70;4.57;;;8.70;99.90;;;;;;5034941;28;20054;-52
2023/03/06 11:47:00;;;;;;;8.15;5.70;;;8.80;99.90;;;;;;5034346;28;20049;-56
2023/03/06 11:49:27;;;;;;;6.05;4.65;;;8.90;99.90;;;;;;5034989;28;20037;-60
2023/03/06 11:51:54;;;;;;;6.20;4.30;;;8.90;99.90;;;;;;5033912;28;20527;-55
2023/03/06 11:54:21;;;;;;;7.72;4.75;;;8.90;99.90;;;;;;5034583;28;20041;-58
2023/03/06 11:56:48;;;;;;;7.20;4.70;;;8.90;99.90;;;;;;5033561;28;20374;-56
2023/03/06 11:59:14;;;;;;;6.78;4.90;;;9.00;99.90;;;;;;5035394;28;20119;-59
2023/03/06 12:01:41;;;;;;;8.10;5.05;;;9.00;99.90;;;;;;5034611;28;20037;-55
2023/03/06 12:04:08;;;;;;;9.13;5.38;;;9.10;99.90;;;;;;5034597;28;20080;-60
2023/03/06 12:06:35;;;;;;;6.53;4.78;;;9.20;99.90;;;;;;5033040;28;20053;-56
2023/03/06 12:09:03;;;;;;;8.88;5.45;;;9.20;99.90;;;;;;5031598;28;20048;-60
2023/03/06 12:11:30;;;;;;;6.45;4.95;;;9.20;99.90;;;;;;5033778;28;20487;-56
2023/03/06 12:13:58;;;;;;;16.25;7.28;;;9.20;99.90;;;;;;5032661;28;20095;-54
2023/03/06 12:16:29;;;;;;;9.25;5.60;;;9.20;99.90;;;;;;5031831;28;20057;-57
2023/03/06 12:18:56;;;;;;;8.25;4.78;;;9.30;99.90;;;;;;5032645;28;20103;-58
2023/03/06 12:21:23;;;;;;;7.13;3.88;;;9.40;99.90;;;;;;5033500;28;20049;-58
2023/03/06 12:23:51;;;;;;;9.18;4.50;;;9.50;99.90;;;;;;5034742;28;20057;-56
2023/03/06 12:26:17;;;;;;;7.43;5.10;;;9.60;99.90;;;;;;5034413;28;20077;-57
2023/03/06 12:28:44;;;;;;;6.03;4.07;;;9.60;99.90;;;;;;5034373;28;20041;-57
2023/03/06 12:31:12;;;;;;;7.05;3.90;;;9.80;99.90;;;;;;5033819;28;20073;-58
2023/03/06 12:33:39;;;;;;;8.57;4.22;;;9.80;99.90;;;;;;5034375;28;20037;-58
2023/03/06 12:36:06;;;;;;;5.47;3.28;;;9.90;99.90;;;;;;5034062;28;20049;-58
2023/03/06 12:38:33;;;;;;;8.45;3.63;;;9.90;99.90;;;;;;5034279;28;20049;-57
2023/03/06 12:41:00;;;;;;;5.15;3.88;;;9.90;99.90;;;;;;5033812;28;20139;-55
2023/03/06 12:43:27;;;;;;;25.63;4.18;;;10.00;99.90;;;;;;5033383;28;20048;-56
2023/03/06 12:45:53;;;;;;;8.00;3.80;;;10.10;99.90;;;;;;5032508;28;20048;-55